sensor_id;sensor_type;location;lat;lon;timestamp;pressure;altitude;pressure_sealevel;temperature;humidity
19526;BME280;9907;42.676;26.348;2022-08-11T00:01:44;98687.38;;;23.78;53.79
19526;BME280;9907;42.676;26.348;2022-08-11T00:04:11;98701.72;;;23.73;53.46
19526;BME280;9907;42.676;26.348;2022-08-11T00:06:38;98686.66;;;23.71;54.07
19526;BME280;9907;42.676;26.348;2022-08-11T00:09:10;98682.50;;;23.68;54.24
19526;BME280;9907;42.676;26.348;2022-08-11T00:11:42;98691.94;;;23.66;53.88
19526;BME280;9907;42.676;26.348;2022-08-11T00:16:41;98692.09;;;23.71;54.11
19526;BME280;9907;42.676;26.348;2022-08-11T00:19:07;98694.81;;;23.71;54.01
19526;BME280;9907;42.676;26.348;2022-08-11T00:21:40;98697.41;;;23.66;53.91
19526;BME280;9907;42.676;26.348;2022-08-11T00:24:06;98692.56;;;23.68;53.65
19526;BME280;9907;42.676;26.348;2022-08-11T00:26:33;98698.84;;;23.68;53.67
19526;BME280;9907;42.676;26.348;2022-08-11T00:29:10;98689.84;;;23.68;53.86
19526;BME280;9907;42.676;26.348;2022-08-11T00:31:36;98684.22;;;23.63;53.91
19526;BME280;9907;42.676;26.348;2022-08-11T00:34:07;98696.66;;;23.59;54.07
19526;BME280;9907;42.676;26.348;2022-08-11T00:36:42;98702.88;;;23.48;54.04
19526;BME280;9907;42.676;26.348;2022-08-11T00:39:10;98695.44;;;23.37;54.33
19526;BME280;9907;42.676;26.348;2022-08-11T00:41:46;98686.88;;;23.33;54.94
19526;BME280;9907;42.676;26.348;2022-08-11T00:47:15;98691.84;;;23.36;53.74
19526;BME280;9907;42.676;26.348;2022-08-11T00:49:57;98700.00;;;23.43;54.20
19526;BME280;9907;42.676;26.348;2022-08-11T00:55:57;98712.34;;;23.45;53.35
19526;BME280;9907;42.676;26.348;2022-08-11T01:01:47;98709.97;;;23.31;54.55
19526;BME280;9907;42.676;26.348;2022-08-11T01:10:22;98714.38;;;23.32;53.70
19526;BME280;9907;42.676;26.348;2022-08-11T01:13:32;98720.88;;;23.31;54.33
19526;BME280;9907;42.676;26.348;2022-08-11T01:19:43;98706.88;;;23.27;53.80
19526;BME280;9907;42.676;26.348;2022-08-11T01:22:30;98685.91;;;23.27;55.12
19526;BME280;9907;42.676;26.348;2022-08-11T01:31:07;98685.28;;;23.25;53.02
19526;BME280;9907;42.676;26.348;2022-08-11T01:36:59;98687.16;;;23.25;53.39
19526;BME280;9907;42.676;26.348;2022-08-11T01:39:52;98693.31;;;23.20;52.77
19526;BME280;9907;42.676;26.348;2022-08-11T01:45:45;98685.38;;;23.19;52.78
19526;BME280;9907;42.676;26.348;2022-08-11T01:54:19;98700.41;;;23.03;53.16
19526;BME280;9907;42.676;26.348;2022-08-11T01:57:14;98700.09;;;22.93;53.52
19526;BME280;9907;42.676;26.348;2022-08-11T01:59:50;98685.56;;;22.99;53.97
19526;BME280;9907;42.676;26.348;2022-08-11T02:05:22;98688.47;;;23.04;53.78
19526;BME280;9907;42.676;26.348;2022-08-11T02:13:52;98699.19;;;22.99;54.09
19526;BME280;9907;42.676;26.348;2022-08-11T02:19:23;98702.81;;;22.93;53.79
19526;BME280;9907;42.676;26.348;2022-08-11T02:22:22;98707.03;;;22.89;54.06
19526;BME280;9907;42.676;26.348;2022-08-11T02:25:36;98699.47;;;22.91;53.73
19526;BME280;9907;42.676;26.348;2022-08-11T02:30:40;98708.78;;;22.84;53.68
19526;BME280;9907;42.676;26.348;2022-08-11T02:33:34;98714.25;;;22.77;54.12
19526;BME280;9907;42.676;26.348;2022-08-11T02:36:14;98715.56;;;22.74;54.27
19526;BME280;9907;42.676;26.348;2022-08-11T02:47:45;98726.16;;;22.58;55.27
19526;BME280;9907;42.676;26.348;2022-08-11T02:53:35;98735.81;;;22.54;55.14
19526;BME280;9907;42.676;26.348;2022-08-11T02:59:05;98720.13;;;22.49;55.04
19526;BME280;9907;42.676;26.348;2022-08-11T03:01:58;98732.47;;;22.52;54.88
19526;BME280;9907;42.676;26.348;2022-08-11T03:10:54;98714.69;;;22.49;55.03
19526;BME280;9907;42.676;26.348;2022-08-11T03:14:12;98713.84;;;22.49;54.90
19526;BME280;9907;42.676;26.348;2022-08-11T03:17:15;98715.34;;;22.45;55.13
19526;BME280;9907;42.676;26.348;2022-08-11T03:25:52;98713.78;;;22.30;55.16
19526;BME280;9907;42.676;26.348;2022-08-11T03:31:13;98733.44;;;22.32;54.48
19526;BME280;9907;42.676;26.348;2022-08-11T03:33:49;98718.38;;;22.30;55.34
19526;BME280;9907;42.676;26.348;2022-08-11T03:36:40;98736.16;;;22.32;55.03
19526;BME280;9907;42.676;26.348;2022-08-11T03:42:32;98736.28;;;22.44;54.26
19526;BME280;9907;42.676;26.348;2022-08-11T03:45:54;98733.13;;;22.47;54.03
19526;BME280;9907;42.676;26.348;2022-08-11T03:48:28;98733.28;;;22.52;54.47
19526;BME280;9907;42.676;26.348;2022-08-11T03:53:57;98724.63;;;22.62;54.38
19526;BME280;9907;42.676;26.348;2022-08-11T04:02:50;98734.22;;;22.71;53.90
19526;BME280;9907;42.676;26.348;2022-08-11T04:16:40;98723.56;;;22.94;52.83
19526;BME280;9907;42.676;26.348;2022-08-11T04:22:34;98720.31;;;23.04;53.21
19526;BME280;9907;42.676;26.348;2022-08-11T04:28:05;98724.34;;;23.38;52.71
19526;BME280;9907;42.676;26.348;2022-08-11T04:36:50;98730.56;;;24.29;50.97
19526;BME280;9907;42.676;26.348;2022-08-11T05:04:40;98725.97;;;26.99;44.00
19526;BME280;9907;42.676;26.348;2022-08-11T05:13:00;98718.28;;;27.34;43.38
19526;BME280;9907;42.676;26.348;2022-08-11T05:15:51;98725.66;;;27.50;42.87
19526;BME280;9907;42.676;26.348;2022-08-11T05:18:44;98721.47;;;27.65;42.60
19526;BME280;9907;42.676;26.348;2022-08-11T05:21:31;98723.41;;;27.64;42.59
19526;BME280;9907;42.676;26.348;2022-08-11T05:24:22;98726.03;;;28.02;41.37
19526;BME280;9907;42.676;26.348;2022-08-11T05:27:09;98724.34;;;28.18;41.30
19526;BME280;9907;42.676;26.348;2022-08-11T05:30:02;98717.59;;;28.31;41.65
19526;BME280;9907;42.676;26.348;2022-08-11T05:32:56;98724.66;;;28.48;41.39
19526;BME280;9907;42.676;26.348;2022-08-11T05:35:46;98724.97;;;28.57;40.86
19526;BME280;9907;42.676;26.348;2022-08-11T05:38:23;98720.69;;;28.66;40.81
19526;BME280;9907;42.676;26.348;2022-08-11T05:41:11;98734.41;;;28.93;40.44
19526;BME280;9907;42.676;26.348;2022-08-11T05:44:00;98712.47;;;29.03;39.35
19526;BME280;9907;42.676;26.348;2022-08-11T05:46:44;98723.28;;;29.15;39.53
19526;BME280;9907;42.676;26.348;2022-08-11T05:49:30;98719.47;;;29.21;39.19
19526;BME280;9907;42.676;26.348;2022-08-11T05:52:26;98720.34;;;29.26;39.57
19526;BME280;9907;42.676;26.348;2022-08-11T05:55:12;98720.44;;;29.36;39.49
19526;BME280;9907;42.676;26.348;2022-08-11T05:58:05;98722.59;;;29.29;38.85
19526;BME280;9907;42.676;26.348;2022-08-11T06:00:40;98723.66;;;29.28;39.14
19526;BME280;9907;42.676;26.348;2022-08-11T06:03:07;98733.50;;;29.24;39.52
19526;BME280;9907;42.676;26.348;2022-08-11T06:05:39;98720.84;;;29.23;38.92
19526;BME280;9907;42.676;26.348;2022-08-11T06:08:08;98724.31;;;29.09;39.06
19526;BME280;9907;42.676;26.348;2022-08-11T06:10:37;98727.00;;;29.30;39.10
19526;BME280;9907;42.676;26.348;2022-08-11T06:13:05;98719.44;;;29.58;38.76
19526;BME280;9907;42.676;26.348;2022-08-11T06:15:32;98731.56;;;29.62;38.50
19526;BME280;9907;42.676;26.348;2022-08-11T06:18:01;98724.47;;;29.76;38.35
19526;BME280;9907;42.676;26.348;2022-08-11T06:20:29;98732.00;;;29.90;38.37
19526;BME280;9907;42.676;26.348;2022-08-11T06:23:05;98739.09;;;29.81;37.79
19526;BME280;9907;42.676;26.348;2022-08-11T06:25:34;98735.88;;;29.89;37.40
19526;BME280;9907;42.676;26.348;2022-08-11T06:28:02;98742.47;;;29.93;38.30
19526;BME280;9907;42.676;26.348;2022-08-11T06:30:40;98732.91;;;30.11;37.27
19526;BME280;9907;42.676;26.348;2022-08-11T06:33:18;98734.31;;;30.29;36.94
19526;BME280;9907;42.676;26.348;2022-08-11T06:46:42;98740.16;;;31.54;35.54
19526;BME280;9907;42.676;26.348;2022-08-11T06:49:10;98739.03;;;31.65;35.14
19526;BME280;9907;42.676;26.348;2022-08-11T06:52:00;98740.91;;;31.74;35.19
19526;BME280;9907;42.676;26.348;2022-08-11T06:54:33;98746.44;;;31.79;34.80
19526;BME280;9907;42.676;26.348;2022-08-11T06:57:00;98734.72;;;32.03;35.45
19526;BME280;9907;42.676;26.348;2022-08-11T06:59:46;98730.19;;;32.32;35.41
19526;BME280;9907;42.676;26.348;2022-08-11T07:02:48;98729.09;;;32.72;34.34
19526;BME280;9907;42.676;26.348;2022-08-11T07:14:58;98714.16;;;34.07;32.12
19526;BME280;9907;42.676;26.348;2022-08-11T07:21:14;98732.91;;;33.91;32.06
19526;BME280;9907;42.676;26.348;2022-08-11T07:24:03;98727.59;;;34.75;30.47
19526;BME280;9907;42.676;26.348;2022-08-11T07:26:53;98732.75;;;35.32;30.51
19526;BME280;9907;42.676;26.348;2022-08-11T07:29:41;98739.56;;;36.08;29.57
19526;BME280;9907;42.676;26.348;2022-08-11T07:32:14;98721.41;;;36.74;28.33
19526;BME280;9907;42.676;26.348;2022-08-11T07:34:46;98728.47;;;37.46;27.39
19526;BME280;9907;42.676;26.348;2022-08-11T07:37:15;98726.00;;;37.84;26.54
19526;BME280;9907;42.676;26.348;2022-08-11T07:39:46;98731.00;;;37.57;27.01
19526;BME280;9907;42.676;26.348;2022-08-11T07:42:19;98734.34;;;37.14;27.25
19526;BME280;9907;42.676;26.348;2022-08-11T07:44:46;98737.94;;;36.92;27.66
19526;BME280;9907;42.676;26.348;2022-08-11T07:47:35;98743.22;;;37.16;27.24
19526;BME280;9907;42.676;26.348;2022-08-11T07:50:20;98726.16;;;38.27;26.23
19526;BME280;9907;42.676;26.348;2022-08-11T07:53:05;98735.66;;;38.26;25.99
19526;BME280;9907;42.676;26.348;2022-08-11T07:55:31;98726.53;;;38.43;26.01
19526;BME280;9907;42.676;26.348;2022-08-11T07:57:59;98722.91;;;38.77;26.00
19526;BME280;9907;42.676;26.348;2022-08-11T08:00:53;98722.69;;;39.33;25.34
19526;BME280;9907;42.676;26.348;2022-08-11T08:03:38;98731.25;;;39.20;25.11
19526;BME280;9907;42.676;26.348;2022-08-11T08:06:23;98730.00;;;38.83;25.12
19526;BME280;9907;42.676;26.348;2022-08-11T08:09:09;98726.88;;;38.50;25.27
19526;BME280;9907;42.676;26.348;2022-08-11T08:11:55;98722.59;;;38.70;25.23
19526;BME280;9907;42.676;26.348;2022-08-11T08:14:40;98726.75;;;39.53;24.66
19526;BME280;9907;42.676;26.348;2022-08-11T08:17:24;98722.59;;;39.04;24.61
19526;BME280;9907;42.676;26.348;2022-08-11T08:20:12;98722.88;;;38.34;25.29
19526;BME280;9907;42.676;26.348;2022-08-11T08:22:39;98722.16;;;37.55;25.74
19526;BME280;9907;42.676;26.348;2022-08-11T08:25:05;98720.13;;;37.46;25.52
19526;BME280;9907;42.676;26.348;2022-08-11T08:27:33;98718.00;;;37.83;25.56
19526;BME280;9907;42.676;26.348;2022-08-11T08:30:01;98720.06;;;38.25;25.80
19526;BME280;9907;42.676;26.348;2022-08-11T08:32:46;98716.19;;;38.61;25.65
19526;BME280;9907;42.676;26.348;2022-08-11T08:35:12;98727.63;;;38.33;25.48
19526;BME280;9907;42.676;26.348;2022-08-11T08:37:39;98724.81;;;38.16;25.73
19526;BME280;9907;42.676;26.348;2022-08-11T08:40:08;98716.31;;;38.30;25.29
19526;BME280;9907;42.676;26.348;2022-08-11T08:42:39;98728.72;;;38.07;25.61
19526;BME280;9907;42.676;26.348;2022-08-11T08:45:10;98726.69;;;37.90;25.99
19526;BME280;9907;42.676;26.348;2022-08-11T08:47:40;98724.22;;;37.80;25.40
19526;BME280;9907;42.676;26.348;2022-08-11T08:50:12;98715.47;;;37.64;25.71
19526;BME280;9907;42.676;26.348;2022-08-11T08:52:52;98715.09;;;37.57;25.96
19526;BME280;9907;42.676;26.348;2022-08-11T08:55:19;98711.53;;;37.34;26.46
19526;BME280;9907;42.676;26.348;2022-08-11T08:57:48;98712.78;;;37.50;26.50
19526;BME280;9907;42.676;26.348;2022-08-11T09:00:15;98724.84;;;37.15;26.08
19526;BME280;9907;42.676;26.348;2022-08-11T09:02:43;98725.28;;;36.86;26.75
19526;BME280;9907;42.676;26.348;2022-08-11T09:05:10;98727.06;;;36.82;26.50
19526;BME280;9907;42.676;26.348;2022-08-11T09:07:37;98708.72;;;36.81;27.17
19526;BME280;9907;42.676;26.348;2022-08-11T09:10:04;98708.03;;;37.20;26.35
19526;BME280;9907;42.676;26.348;2022-08-11T09:12:31;98708.97;;;37.46;26.48
19526;BME280;9907;42.676;26.348;2022-08-11T09:14:59;98709.25;;;37.05;26.13
19526;BME280;9907;42.676;26.348;2022-08-11T09:17:34;98711.13;;;36.38;26.60
19526;BME280;9907;42.676;26.348;2022-08-11T09:20:05;98693.81;;;36.41;26.88
19526;BME280;9907;42.676;26.348;2022-08-11T09:22:36;98694.97;;;36.63;27.07
19526;BME280;9907;42.676;26.348;2022-08-11T09:25:25;98695.81;;;36.27;27.88
19526;BME280;9907;42.676;26.348;2022-08-11T09:28:10;98697.31;;;35.10;28.04
19526;BME280;9907;42.676;26.348;2022-08-11T09:30:40;98702.16;;;34.11;30.18
19526;BME280;9907;42.676;26.348;2022-08-11T09:33:07;98688.88;;;33.42;30.77
19526;BME280;9907;42.676;26.348;2022-08-11T09:35:35;98688.06;;;32.84;31.78
19526;BME280;9907;42.676;26.348;2022-08-11T09:38:04;98687.88;;;32.37;33.05
19526;BME280;9907;42.676;26.348;2022-08-11T09:40:50;98682.06;;;31.89;33.03
19526;BME280;9907;42.676;26.348;2022-08-11T09:43:17;98689.66;;;31.48;33.48
19526;BME280;9907;42.676;26.348;2022-08-11T09:46:02;98686.97;;;31.18;34.26
19526;BME280;9907;42.676;26.348;2022-08-11T09:48:38;98686.41;;;30.90;34.51
19526;BME280;9907;42.676;26.348;2022-08-11T09:51:04;98699.09;;;30.71;34.77
19526;BME280;9907;42.676;26.348;2022-08-11T09:53:36;98680.09;;;30.50;35.14
19526;BME280;9907;42.676;26.348;2022-08-11T09:56:03;98693.84;;;30.29;35.22
19526;BME280;9907;42.676;26.348;2022-08-11T09:58:49;98682.47;;;30.06;35.32
19526;BME280;9907;42.676;26.348;2022-08-11T10:01:17;98705.28;;;29.91;36.03
19526;BME280;9907;42.676;26.348;2022-08-11T10:03:57;98690.09;;;29.78;36.03
19526;BME280;9907;42.676;26.348;2022-08-11T10:06:26;98689.81;;;29.75;36.50
19526;BME280;9907;42.676;26.348;2022-08-11T10:09:11;98696.66;;;29.72;36.45
19526;BME280;9907;42.676;26.348;2022-08-11T10:11:38;98697.75;;;29.71;36.60
19526;BME280;9907;42.676;26.348;2022-08-11T10:14:06;98692.78;;;29.63;36.09
19526;BME280;9907;42.676;26.348;2022-08-11T10:16:52;98689.44;;;29.61;36.37
19526;BME280;9907;42.676;26.348;2022-08-11T10:19:18;98685.03;;;29.60;37.25
19526;BME280;9907;42.676;26.348;2022-08-11T10:21:49;98689.16;;;29.58;36.73
19526;BME280;9907;42.676;26.348;2022-08-11T10:24:36;98680.91;;;29.53;37.11
19526;BME280;9907;42.676;26.348;2022-08-11T10:27:20;98687.75;;;29.50;37.69
19526;BME280;9907;42.676;26.348;2022-08-11T10:29:46;98692.97;;;29.46;37.70
19526;BME280;9907;42.676;26.348;2022-08-11T10:32:31;98687.13;;;29.38;37.95
19526;BME280;9907;42.676;26.348;2022-08-11T10:35:17;98680.53;;;29.34;38.44
19526;BME280;9907;42.676;26.348;2022-08-11T10:37:45;98681.88;;;29.31;38.01
19526;BME280;9907;42.676;26.348;2022-08-11T10:40:16;98688.41;;;29.25;37.80
19526;BME280;9907;42.676;26.348;2022-08-11T10:42:43;98693.06;;;29.20;37.99
19526;BME280;9907;42.676;26.348;2022-08-11T10:45:34;98678.75;;;29.18;38.45
19526;BME280;9907;42.676;26.348;2022-08-11T10:48:20;98679.59;;;29.18;38.34
19526;BME280;9907;42.676;26.348;2022-08-11T10:50:46;98694.16;;;29.19;38.81
19526;BME280;9907;42.676;26.348;2022-08-11T10:53:34;98694.66;;;29.16;38.18
19526;BME280;9907;42.676;26.348;2022-08-11T10:56:19;98676.25;;;29.11;38.29
19526;BME280;9907;42.676;26.348;2022-08-11T10:59:05;98686.41;;;29.11;39.12
19526;BME280;9907;42.676;26.348;2022-08-11T11:01:35;98683.91;;;29.09;39.28
19526;BME280;9907;42.676;26.348;2022-08-11T11:04:09;98687.50;;;29.10;38.46
19526;BME280;9907;42.676;26.348;2022-08-11T11:09:30;98679.75;;;29.01;38.78
19526;BME280;9907;42.676;26.348;2022-08-11T11:12:10;98686.34;;;29.00;38.66
19526;BME280;9907;42.676;26.348;2022-08-11T11:14:54;98678.59;;;28.97;38.53
19526;BME280;9907;42.676;26.348;2022-08-11T11:17:46;98679.97;;;28.95;39.09
19526;BME280;9907;42.676;26.348;2022-08-11T11:20:28;98679.13;;;28.94;39.05
19526;BME280;9907;42.676;26.348;2022-08-11T11:23:06;98681.06;;;28.94;38.76
19526;BME280;9907;42.676;26.348;2022-08-11T11:37:33;98676.13;;;28.96;38.69
19526;BME280;9907;42.676;26.348;2022-08-11T11:40:08;98669.75;;;28.90;38.70
19526;BME280;9907;42.676;26.348;2022-08-11T11:42:43;98672.22;;;28.87;38.57
19526;BME280;9907;42.676;26.348;2022-08-11T11:45:11;98677.13;;;28.80;39.27
19526;BME280;9907;42.676;26.348;2022-08-11T11:47:39;98681.00;;;28.84;38.50
19526;BME280;9907;42.676;26.348;2022-08-11T11:50:06;98675.44;;;28.79;38.72
19526;BME280;9907;42.676;26.348;2022-08-11T11:52:33;98680.44;;;28.82;38.81
19526;BME280;9907;42.676;26.348;2022-08-11T11:54:59;98679.09;;;28.84;39.09
19526;BME280;9907;42.676;26.348;2022-08-11T11:57:26;98675.53;;;28.89;38.91
19526;BME280;9907;42.676;26.348;2022-08-11T12:00:12;98675.78;;;28.87;38.22
19526;BME280;9907;42.676;26.348;2022-08-11T12:02:58;98678.00;;;28.90;38.78
19526;BME280;9907;42.676;26.348;2022-08-11T12:05:26;98666.75;;;28.92;38.04
19526;BME280;9907;42.676;26.348;2022-08-11T12:07:53;98667.91;;;29.01;38.24
19526;BME280;9907;42.676;26.348;2022-08-11T12:10:46;98664.38;;;29.06;37.89
19526;BME280;9907;42.676;26.348;2022-08-11T12:13:12;98670.44;;;29.08;37.90
19526;BME280;9907;42.676;26.348;2022-08-11T12:15:57;98661.38;;;29.12;38.05
19526;BME280;9907;42.676;26.348;2022-08-11T12:18:31;98674.84;;;29.09;37.91
19526;BME280;9907;42.676;26.348;2022-08-11T12:20:59;98671.28;;;29.08;38.50
19526;BME280;9907;42.676;26.348;2022-08-11T12:23:25;98669.91;;;29.11;38.41
19526;BME280;9907;42.676;26.348;2022-08-11T12:26:16;98662.50;;;29.11;38.11
19526;BME280;9907;42.676;26.348;2022-08-11T12:29:02;98665.78;;;29.13;37.92
19526;BME280;9907;42.676;26.348;2022-08-11T12:31:30;98664.97;;;29.13;37.92
19526;BME280;9907;42.676;26.348;2022-08-11T12:34:07;98668.84;;;29.17;37.80
19526;BME280;9907;42.676;26.348;2022-08-11T12:36:42;98671.88;;;29.20;37.58
19526;BME280;9907;42.676;26.348;2022-08-11T12:39:09;98664.75;;;29.24;37.62
19526;BME280;9907;42.676;26.348;2022-08-11T12:41:37;98654.84;;;29.18;37.38
19526;BME280;9907;42.676;26.348;2022-08-11T12:44:26;98655.88;;;29.12;37.95
19526;BME280;9907;42.676;26.348;2022-08-11T12:47:14;98653.41;;;29.11;37.91
19526;BME280;9907;42.676;26.348;2022-08-11T12:49:45;98668.78;;;29.07;37.75
19526;BME280;9907;42.676;26.348;2022-08-11T12:52:34;98655.50;;;28.93;37.72
19526;BME280;9907;42.676;26.348;2022-08-11T12:57:38;98643.09;;;28.91;38.10
19526;BME280;9907;42.676;26.348;2022-08-11T13:00:26;98647.28;;;28.93;38.28
19526;BME280;9907;42.676;26.348;2022-08-11T13:03:12;98649.44;;;28.91;37.64
19526;BME280;9907;42.676;26.348;2022-08-11T13:06:03;98637.03;;;28.84;38.63
19526;BME280;9907;42.676;26.348;2022-08-11T13:08:34;98648.28;;;28.82;38.28
19526;BME280;9907;42.676;26.348;2022-08-11T13:11:00;98635.28;;;28.73;38.27
19526;BME280;9907;42.676;26.348;2022-08-11T13:13:47;98647.06;;;28.68;38.69
19526;BME280;9907;42.676;26.348;2022-08-11T13:16:13;98648.41;;;28.66;38.67
19526;BME280;9907;42.676;26.348;2022-08-11T13:18:40;98637.16;;;28.67;38.97
19526;BME280;9907;42.676;26.348;2022-08-11T13:21:09;98632.16;;;28.64;38.65
19526;BME280;9907;42.676;26.348;2022-08-11T13:23:37;98641.25;;;28.65;38.08
19526;BME280;9907;42.676;26.348;2022-08-11T13:26:03;98642.34;;;28.64;37.89
19526;BME280;9907;42.676;26.348;2022-08-11T13:28:29;98654.72;;;28.66;37.87
19526;BME280;9907;42.676;26.348;2022-08-11T13:30:55;98647.22;;;28.57;38.32
19526;BME280;9907;42.676;26.348;2022-08-11T13:33:46;98631.56;;;28.57;38.67
19526;BME280;9907;42.676;26.348;2022-08-11T13:36:18;98640.38;;;28.59;38.93
19526;BME280;9907;42.676;26.348;2022-08-11T13:38:45;98651.63;;;28.58;38.61
19526;BME280;9907;42.676;26.348;2022-08-11T13:41:12;98642.31;;;28.59;39.06
19526;BME280;9907;42.676;26.348;2022-08-11T13:43:57;98656.81;;;28.54;38.99
19526;BME280;9907;42.676;26.348;2022-08-11T13:46:24;98647.44;;;28.50;39.19
19526;BME280;9907;42.676;26.348;2022-08-11T13:48:53;98653.22;;;28.48;38.70
19526;BME280;9907;42.676;26.348;2022-08-11T13:51:19;98658.66;;;28.43;39.04
19526;BME280;9907;42.676;26.348;2022-08-11T13:53:57;98658.59;;;28.38;39.00
19526;BME280;9907;42.676;26.348;2022-08-11T13:56:23;98652.25;;;28.33;39.21
19526;BME280;9907;42.676;26.348;2022-08-11T13:58:50;98653.31;;;28.27;39.01
19526;BME280;9907;42.676;26.348;2022-08-11T14:01:19;98660.41;;;28.23;39.27
19526;BME280;9907;42.676;26.348;2022-08-11T14:03:46;98659.50;;;28.17;39.60
19526;BME280;9907;42.676;26.348;2022-08-11T14:06:14;98649.59;;;28.16;39.72
19526;BME280;9907;42.676;26.348;2022-08-11T14:08:42;98647.69;;;28.17;39.69
19526;BME280;9907;42.676;26.348;2022-08-11T14:11:10;98651.03;;;28.19;39.42
19526;BME280;9907;42.676;26.348;2022-08-11T14:13:56;98638.94;;;28.20;39.49
19526;BME280;9907;42.676;26.348;2022-08-11T14:16:30;98655.09;;;28.16;40.21
19526;BME280;9907;42.676;26.348;2022-08-11T14:19:03;98637.53;;;28.17;39.96
19526;BME280;9907;42.676;26.348;2022-08-11T14:21:38;98634.81;;;28.17;39.88
19526;BME280;9907;42.676;26.348;2022-08-11T14:24:25;98637.31;;;28.19;39.83
19526;BME280;9907;42.676;26.348;2022-08-11T14:26:51;98636.19;;;28.20;40.05
19526;BME280;9907;42.676;26.348;2022-08-11T14:29:24;98641.97;;;28.18;39.69
19526;BME280;9907;42.676;26.348;2022-08-11T14:32:10;98631.81;;;28.19;39.79
19526;BME280;9907;42.676;26.348;2022-08-11T14:34:40;98631.81;;;28.19;40.15
19526;BME280;9907;42.676;26.348;2022-08-11T14:37:09;98651.88;;;28.19;40.16
19526;BME280;9907;42.676;26.348;2022-08-11T14:42:09;98640.28;;;28.17;40.21
19526;BME280;9907;42.676;26.348;2022-08-11T14:44:56;98630.66;;;28.15;40.27
19526;BME280;9907;42.676;26.348;2022-08-11T14:47:43;98624.34;;;28.14;40.09
19526;BME280;9907;42.676;26.348;2022-08-11T14:50:15;98639.16;;;28.13;40.52
19526;BME280;9907;42.676;26.348;2022-08-11T14:52:50;98647.66;;;28.12;40.33
19526;BME280;9907;42.676;26.348;2022-08-11T14:55:18;98643.00;;;28.12;40.00
19526;BME280;9907;42.676;26.348;2022-08-11T14:58:04;98642.19;;;28.12;40.25
19526;BME280;9907;42.676;26.348;2022-08-11T15:00:31;98640.25;;;28.12;40.14
19526;BME280;9907;42.676;26.348;2022-08-11T15:02:59;98625.69;;;28.12;40.09
19526;BME280;9907;42.676;26.348;2022-08-11T15:08:08;98631.94;;;28.07;40.15
19526;BME280;9907;42.676;26.348;2022-08-11T15:10:35;98632.81;;;28.08;40.30
19526;BME280;9907;42.676;26.348;2022-08-11T15:13:03;98631.09;;;28.06;40.47
19526;BME280;9907;42.676;26.348;2022-08-11T15:15:30;98635.09;;;27.94;40.47
19526;BME280;9907;42.676;26.348;2022-08-11T15:18:17;98628.50;;;27.95;40.61
19526;BME280;9907;42.676;26.348;2022-08-11T15:20:43;98627.13;;;27.92;40.29
19526;BME280;9907;42.676;26.348;2022-08-11T15:23:28;98623.47;;;27.87;40.76
19526;BME280;9907;42.676;26.348;2022-08-11T15:26:16;98623.69;;;27.80;40.23
19526;BME280;9907;42.676;26.348;2022-08-11T15:28:48;98632.38;;;27.72;41.25
19526;BME280;9907;42.676;26.348;2022-08-11T15:31:35;98630.47;;;27.73;41.41
19526;BME280;9907;42.676;26.348;2022-08-11T15:34:24;98628.47;;;27.63;41.01
19526;BME280;9907;42.676;26.348;2022-08-11T15:37:14;98630.56;;;27.56;41.51
19526;BME280;9907;42.676;26.348;2022-08-11T15:46:02;98631.34;;;27.51;41.37
19526;BME280;9907;42.676;26.348;2022-08-11T15:51:09;98624.94;;;27.46;41.47
19526;BME280;9907;42.676;26.348;2022-08-11T15:53:47;98626.25;;;27.43;41.51
19526;BME280;9907;42.676;26.348;2022-08-11T15:56:15;98631.50;;;27.45;41.04
19526;BME280;9907;42.676;26.348;2022-08-11T15:58:46;98628.69;;;27.40;41.58
19526;BME280;9907;42.676;26.348;2022-08-11T16:01:34;98640.50;;;27.40;42.19
19526;BME280;9907;42.676;26.348;2022-08-11T16:04:21;98627.53;;;27.36;42.09
19526;BME280;9907;42.676;26.348;2022-08-11T16:06:59;98623.97;;;27.35;41.67
19526;BME280;9907;42.676;26.348;2022-08-11T16:09:31;98638.47;;;27.31;41.35
19526;BME280;9907;42.676;26.348;2022-08-11T16:12:01;98638.09;;;27.27;41.49
19526;BME280;9907;42.676;26.348;2022-08-11T16:14:28;98628.28;;;27.09;41.80
19526;BME280;9907;42.676;26.348;2022-08-11T16:17:15;98650.63;;;27.01;42.50
19526;BME280;9907;42.676;26.348;2022-08-11T16:19:43;98636.47;;;27.04;42.22
19526;BME280;9907;42.676;26.348;2022-08-11T16:22:11;98651.03;;;27.10;42.18
19526;BME280;9907;42.676;26.348;2022-08-11T16:24:43;98639.56;;;27.13;42.77
19526;BME280;9907;42.676;26.348;2022-08-11T16:27:10;98643.72;;;27.16;42.55
19526;BME280;9907;42.676;26.348;2022-08-11T16:29:43;98640.41;;;27.14;42.36
19526;BME280;9907;42.676;26.348;2022-08-11T16:32:13;98651.38;;;27.14;42.92
19526;BME280;9907;42.676;26.348;2022-08-11T16:34:43;98633.25;;;27.13;42.06
19526;BME280;9907;42.676;26.348;2022-08-11T16:37:31;98645.88;;;27.14;42.91
19526;BME280;9907;42.676;26.348;2022-08-11T16:40:16;98654.38;;;27.12;42.36
19526;BME280;9907;42.676;26.348;2022-08-11T16:42:45;98648.56;;;27.08;42.33
19526;BME280;9907;42.676;26.348;2022-08-11T16:45:31;98653.06;;;26.98;42.62
19526;BME280;9907;42.676;26.348;2022-08-11T16:48:18;98657.75;;;26.97;42.44
19526;BME280;9907;42.676;26.348;2022-08-11T16:50:44;98665.13;;;26.97;42.15
19526;BME280;9907;42.676;26.348;2022-08-11T16:53:10;98660.94;;;26.94;42.37
19526;BME280;9907;42.676;26.348;2022-08-11T16:55:36;98657.00;;;26.85;42.67
19526;BME280;9907;42.676;26.348;2022-08-11T16:58:04;98679.75;;;26.86;42.59
19526;BME280;9907;42.676;26.348;2022-08-11T17:00:50;98665.47;;;26.84;42.42
19526;BME280;9907;42.676;26.348;2022-08-11T17:03:17;98668.09;;;26.79;42.53
19526;BME280;9907;42.676;26.348;2022-08-11T17:06:02;98676.81;;;26.76;42.51
19526;BME280;9907;42.676;26.348;2022-08-11T17:08:50;98674.34;;;26.74;42.89
19526;BME280;9907;42.676;26.348;2022-08-11T17:11:43;98676.47;;;26.72;42.75
19526;BME280;9907;42.676;26.348;2022-08-11T17:14:36;98678.00;;;26.63;43.09
19526;BME280;9907;42.676;26.348;2022-08-11T17:17:09;98676.31;;;26.62;42.44